Pagrindinis puslapis
METAR-TAF:

METAR-TAF

Oro uostai :

Woodward, Oklahoma, Jungtinės Amerikos Valstijos

platuma: 36-26-12N, ilguma: 099-31-16W, Aukštis: 667 m

Dabartinis oras

Ataskaita buvo paskelbta 10 minutes, ne 04:15 UTC
Vėjas 9 kt iš Pietryčių
Temperatūra 13°C
Drėgmė 72%
Slėgis 1024 hPa
Matomumas: 16.1 km
Giedras dangus

METAR: KWWR 140415Z AUTO 14009KT 10SM CLR 13/08 A3023 RMK AO2

Laikas: 23:25 (04:25 UTC)

Prognozė

Ataskaita buvo paskelbta 4 valandos ir 59 minutes, ne 23:26 UTC
Prognozė galioja nuo 14 metu 00 UTC su 14 metu 24 UTC
Vėjas 12 kt iš Pietų/Pietryčių
Matomumas: 10 km
Išsisklaidę debesys ne aukštis 5000 ft
Išsisklaidę debesys ne aukštis 15000 ft
Nuo 14 metu 0600 UTC
Vėjas 14 kt iš Pietų/Pietryčių su gūsio iki 20 kt
Matomumas: 10 km
Su prošvaistėmis ne aukštis 25000 ft
Nuo 14 metu 1200 UTC
Vėjas 18 kt iš Pietų su gūsio iki 26 kt
Matomumas: 10 km
Išsisklaidę debesys ne aukštis 5000 ft
Su prošvaistėmis ne aukštis 25000 ft

TAF: KWWR 132326Z 1400/1424 15012KT P6SM SCT050 SCT150 FM140600 16014G20KT P6SM BKN250 FM141200 19018G26KT P6SM SCT050 BKN250

Orai ataskaitas ir orų prognozės (METAR, TAF).

turimą stotys yra geltonos ir raudonos taškus žemėlapyje.

Perkelti pele per norėdami pamatyti stoties vardą.

Tada spustelėkite, norėdami matyti oro stebėjimo ir prognozės.

Norėdami pakeisti žemėlapį: spustelėkite ant žalios mygtukų su juodo kryžiaus žemyn,; žalią mygtuką su brūkšneliu, jei norite nutolinti; arba žalių rodyklių gretimoms žemėlapius.


METAR-TAF: